sensor_id;sensor_type;location;lat;lon;timestamp;P1;durP1;ratioP1;P2;durP2;ratioP2
7929;SDS011;4010;42.698;23.124;2022-09-29T00:00:41;1.53;;;1.37;;
7929;SDS011;4010;42.698;23.124;2022-09-29T00:03:08;4.23;;;1.80;;
7929;SDS011;4010;42.698;23.124;2022-09-29T00:05:35;1.80;;;1.57;;
7929;SDS011;4010;42.698;23.124;2022-09-29T00:08:02;3.33;;;1.73;;
7929;SDS011;4010;42.698;23.124;2022-09-29T00:10:29;3.87;;;2.10;;
7929;SDS011;4010;42.698;23.124;2022-09-29T00:12:57;3.23;;;1.60;;
7929;SDS011;4010;42.698;23.124;2022-09-29T00:15:23;1.50;;;1.40;;
7929;SDS011;4010;42.698;23.124;2022-09-29T00:17:50;2.50;;;1.73;;
7929;SDS011;4010;42.698;23.124;2022-09-29T00:20:17;1.80;;;1.40;;
7929;SDS011;4010;42.698;23.124;2022-09-29T00:22:43;2.93;;;1.80;;
7929;SDS011;4010;42.698;23.124;2022-09-29T00:25:14;2.17;;;1.80;;
7929;SDS011;4010;42.698;23.124;2022-09-29T00:27:41;2.57;;;1.47;;
7929;SDS011;4010;42.698;23.124;2022-09-29T00:30:09;1.77;;;1.53;;
7929;SDS011;4010;42.698;23.124;2022-09-29T00:32:37;1.80;;;1.50;;
7929;SDS011;4010;42.698;23.124;2022-09-29T00:35:04;2.20;;;1.50;;
7929;SDS011;4010;42.698;23.124;2022-09-29T00:37:31;2.30;;;1.40;;
7929;SDS011;4010;42.698;23.124;2022-09-29T00:39:58;1.47;;;1.23;;
7929;SDS011;4010;42.698;23.124;2022-09-29T00:42:26;1.80;;;1.63;;
7929;SDS011;4010;42.698;23.124;2022-09-29T00:44:54;3.33;;;1.70;;
7929;SDS011;4010;42.698;23.124;2022-09-29T00:47:29;3.17;;;1.30;;
7929;SDS011;4010;42.698;23.124;2022-09-29T00:49:58;1.80;;;1.60;;
7929;SDS011;4010;42.698;23.124;2022-09-29T00:52:31;1.40;;;1.30;;
7929;SDS011;4010;42.698;23.124;2022-09-29T00:55:01;2.00;;;1.30;;
7929;SDS011;4010;42.698;23.124;2022-09-29T00:57:32;1.50;;;1.40;;
7929;SDS011;4010;42.698;23.124;2022-09-29T01:00:03;1.50;;;1.10;;
7929;SDS011;4010;42.698;23.124;2022-09-29T01:02:34;2.37;;;1.30;;
7929;SDS011;4010;42.698;23.124;2022-09-29T01:05:09;1.30;;;1.20;;
7929;SDS011;4010;42.698;23.124;2022-09-29T01:07:38;2.23;;;1.30;;
7929;SDS011;4010;42.698;23.124;2022-09-29T01:10:07;1.30;;;1.20;;
7929;SDS011;4010;42.698;23.124;2022-09-29T01:12:35;1.23;;;1.13;;
7929;SDS011;4010;42.698;23.124;2022-09-29T01:15:02;2.00;;;1.47;;
7929;SDS011;4010;42.698;23.124;2022-09-29T01:17:29;1.67;;;1.20;;
7929;SDS011;4010;42.698;23.124;2022-09-29T01:20:00;2.03;;;1.60;;
7929;SDS011;4010;42.698;23.124;2022-09-29T01:22:56;1.43;;;1.20;;
7929;SDS011;4010;42.698;23.124;2022-09-29T01:26:12;1.50;;;1.27;;
7929;SDS011;4010;42.698;23.124;2022-09-29T01:29:14;1.43;;;1.30;;
7929;SDS011;4010;42.698;23.124;2022-09-29T01:32:09;1.80;;;1.30;;
7929;SDS011;4010;42.698;23.124;2022-09-29T01:34:45;4.33;;;1.40;;
7929;SDS011;4010;42.698;23.124;2022-09-29T01:37:25;1.40;;;1.30;;
7929;SDS011;4010;42.698;23.124;2022-09-29T01:40:05;1.40;;;1.30;;
7929;SDS011;4010;42.698;23.124;2022-09-29T01:42:38;2.83;;;1.50;;
7929;SDS011;4010;42.698;23.124;2022-09-29T01:45:11;2.90;;;1.43;;
7929;SDS011;4010;42.698;23.124;2022-09-29T01:47:44;1.47;;;1.10;;
7929;SDS011;4010;42.698;23.124;2022-09-29T01:50:17;1.57;;;1.23;;
7929;SDS011;4010;42.698;23.124;2022-09-29T01:52:49;2.87;;;1.23;;
7929;SDS011;4010;42.698;23.124;2022-09-29T01:55:22;1.43;;;1.30;;
7929;SDS011;4010;42.698;23.124;2022-09-29T01:57:53;1.23;;;1.03;;
7929;SDS011;4010;42.698;23.124;2022-09-29T02:00:24;2.13;;;1.50;;
7929;SDS011;4010;42.698;23.124;2022-09-29T02:02:57;1.60;;;1.40;;
7929;SDS011;4010;42.698;23.124;2022-09-29T02:05:32;1.50;;;1.40;;
7929;SDS011;4010;42.698;23.124;2022-09-29T02:08:06;1.67;;;1.07;;
7929;SDS011;4010;42.698;23.124;2022-09-29T02:10:36;1.90;;;1.53;;
7929;SDS011;4010;42.698;23.124;2022-09-29T02:13:07;2.73;;;1.43;;
7929;SDS011;4010;42.698;23.124;2022-09-29T02:15:37;1.67;;;1.40;;
7929;SDS011;4010;42.698;23.124;2022-09-29T02:18:11;1.33;;;1.23;;
7929;SDS011;4010;42.698;23.124;2022-09-29T02:20:43;1.23;;;1.20;;
7929;SDS011;4010;42.698;23.124;2022-09-29T02:23:11;2.33;;;1.10;;
7929;SDS011;4010;42.698;23.124;2022-09-29T02:25:38;3.60;;;1.33;;
7929;SDS011;4010;42.698;23.124;2022-09-29T02:28:06;2.40;;;1.50;;
7929;SDS011;4010;42.698;23.124;2022-09-29T02:30:33;1.50;;;1.40;;
7929;SDS011;4010;42.698;23.124;2022-09-29T02:33:01;1.80;;;1.43;;
7929;SDS011;4010;42.698;23.124;2022-09-29T02:35:31;1.43;;;1.10;;
7929;SDS011;4010;42.698;23.124;2022-09-29T02:38:08;1.60;;;1.10;;
7929;SDS011;4010;42.698;23.124;2022-09-29T02:40:44;1.37;;;1.23;;
7929;SDS011;4010;42.698;23.124;2022-09-29T02:46:30;1.53;;;1.13;;
7929;SDS011;4010;42.698;23.124;2022-09-29T02:49:12;1.77;;;1.37;;
7929;SDS011;4010;42.698;23.124;2022-09-29T02:51:56;1.77;;;1.20;;
7929;SDS011;4010;42.698;23.124;2022-09-29T02:54:31;1.70;;;1.60;;
7929;SDS011;4010;42.698;23.124;2022-09-29T02:57:14;1.90;;;1.10;;
7929;SDS011;4010;42.698;23.124;2022-09-29T02:59:48;1.67;;;1.13;;
7929;SDS011;4010;42.698;23.124;2022-09-29T03:02:22;1.30;;;1.20;;
7929;SDS011;4010;42.698;23.124;2022-09-29T03:04:50;1.10;;;1.00;;
7929;SDS011;4010;42.698;23.124;2022-09-29T03:07:19;2.57;;;1.30;;
7929;SDS011;4010;42.698;23.124;2022-09-29T03:09:46;3.57;;;1.80;;
7929;SDS011;4010;42.698;23.124;2022-09-29T03:12:12;3.00;;;1.30;;
7929;SDS011;4010;42.698;23.124;2022-09-29T03:14:39;3.63;;;1.30;;
7929;SDS011;4010;42.698;23.124;2022-09-29T03:17:06;3.77;;;1.70;;
7929;SDS011;4010;42.698;23.124;2022-09-29T03:19:32;1.80;;;1.13;;
7929;SDS011;4010;42.698;23.124;2022-09-29T03:21:59;2.37;;;1.60;;
7929;SDS011;4010;42.698;23.124;2022-09-29T03:24:27;1.70;;;1.60;;
7929;SDS011;4010;42.698;23.124;2022-09-29T03:26:55;2.13;;;1.30;;
7929;SDS011;4010;42.698;23.124;2022-09-29T03:29:22;2.70;;;1.37;;
7929;SDS011;4010;42.698;23.124;2022-09-29T03:31:49;2.70;;;1.40;;
7929;SDS011;4010;42.698;23.124;2022-09-29T03:34:16;1.40;;;1.30;;
7929;SDS011;4010;42.698;23.124;2022-09-29T03:36:42;2.93;;;1.80;;
7929;SDS011;4010;42.698;23.124;2022-09-29T03:39:09;3.97;;;1.00;;
7929;SDS011;4010;42.698;23.124;2022-09-29T03:41:37;1.43;;;1.30;;
7929;SDS011;4010;42.698;23.124;2022-09-29T03:44:04;2.33;;;1.50;;
7929;SDS011;4010;42.698;23.124;2022-09-29T03:46:30;3.50;;;1.50;;
7929;SDS011;4010;42.698;23.124;2022-09-29T03:48:57;7.07;;;1.70;;
7929;SDS011;4010;42.698;23.124;2022-09-29T03:51:24;3.17;;;1.53;;
7929;SDS011;4010;42.698;23.124;2022-09-29T03:53:50;4.97;;;1.80;;
7929;SDS011;4010;42.698;23.124;2022-09-29T03:56:17;2.37;;;1.80;;
7929;SDS011;4010;42.698;23.124;2022-09-29T03:58:45;4.47;;;1.97;;
7929;SDS011;4010;42.698;23.124;2022-09-29T04:01:12;5.43;;;1.70;;
7929;SDS011;4010;42.698;23.124;2022-09-29T04:03:39;2.93;;;1.80;;
7929;SDS011;4010;42.698;23.124;2022-09-29T04:06:05;3.70;;;1.70;;
7929;SDS011;4010;42.698;23.124;2022-09-29T04:08:34;5.67;;;1.50;;
7929;SDS011;4010;42.698;23.124;2022-09-29T04:11:01;3.13;;;1.70;;
7929;SDS011;4010;42.698;23.124;2022-09-29T04:13:28;7.23;;;2.10;;
7929;SDS011;4010;42.698;23.124;2022-09-29T04:15:57;6.50;;;2.00;;
7929;SDS011;4010;42.698;23.124;2022-09-29T04:18:25;2.57;;;1.90;;
7929;SDS011;4010;42.698;23.124;2022-09-29T04:20:51;6.20;;;2.23;;
7929;SDS011;4010;42.698;23.124;2022-09-29T04:23:18;6.40;;;2.27;;
7929;SDS011;4010;42.698;23.124;2022-09-29T04:25:45;4.50;;;2.30;;
7929;SDS011;4010;42.698;23.124;2022-09-29T04:28:12;7.20;;;1.80;;
7929;SDS011;4010;42.698;23.124;2022-09-29T04:30:39;6.37;;;1.87;;
7929;SDS011;4010;42.698;23.124;2022-09-29T04:33:07;7.03;;;1.73;;
7929;SDS011;4010;42.698;23.124;2022-09-29T04:35:34;5.00;;;1.77;;
7929;SDS011;4010;42.698;23.124;2022-09-29T04:38:01;4.97;;;1.40;;
7929;SDS011;4010;42.698;23.124;2022-09-29T04:40:27;4.43;;;1.27;;
7929;SDS011;4010;42.698;23.124;2022-09-29T04:42:54;6.30;;;1.77;;
7929;SDS011;4010;42.698;23.124;2022-09-29T04:45:21;2.83;;;1.50;;
7929;SDS011;4010;42.698;23.124;2022-09-29T04:47:47;3.53;;;1.90;;
7929;SDS011;4010;42.698;23.124;2022-09-29T04:50:15;3.50;;;1.40;;
7929;SDS011;4010;42.698;23.124;2022-09-29T04:52:42;2.93;;;1.70;;
7929;SDS011;4010;42.698;23.124;2022-09-29T04:55:09;3.80;;;1.23;;
7929;SDS011;4010;42.698;23.124;2022-09-29T04:57:36;3.97;;;1.57;;
7929;SDS011;4010;42.698;23.124;2022-09-29T05:00:04;1.57;;;1.10;;
7929;SDS011;4010;42.698;23.124;2022-09-29T05:02:32;1.73;;;1.10;;
7929;SDS011;4010;42.698;23.124;2022-09-29T05:04:59;1.40;;;1.20;;
7929;SDS011;4010;42.698;23.124;2022-09-29T05:07:27;2.20;;;1.30;;
7929;SDS011;4010;42.698;23.124;2022-09-29T05:09:54;1.30;;;1.10;;
7929;SDS011;4010;42.698;23.124;2022-09-29T05:12:21;2.30;;;1.23;;
7929;SDS011;4010;42.698;23.124;2022-09-29T05:14:48;1.47;;;1.20;;
7929;SDS011;4010;42.698;23.124;2022-09-29T05:17:14;2.53;;;1.00;;
7929;SDS011;4010;42.698;23.124;2022-09-29T05:19:41;2.67;;;1.37;;
7929;SDS011;4010;42.698;23.124;2022-09-29T05:22:08;2.97;;;1.53;;
7929;SDS011;4010;42.698;23.124;2022-09-29T05:24:36;1.63;;;1.47;;
7929;SDS011;4010;42.698;23.124;2022-09-29T05:27:03;3.37;;;1.53;;
7929;SDS011;4010;42.698;23.124;2022-09-29T05:29:29;3.07;;;1.60;;
7929;SDS011;4010;42.698;23.124;2022-09-29T05:31:56;1.23;;;1.07;;
7929;SDS011;4010;42.698;23.124;2022-09-29T05:34:23;1.97;;;1.40;;
7929;SDS011;4010;42.698;23.124;2022-09-29T05:36:49;1.60;;;1.30;;
7929;SDS011;4010;42.698;23.124;2022-09-29T05:39:16;1.30;;;1.20;;
7929;SDS011;4010;42.698;23.124;2022-09-29T05:41:46;3.03;;;1.67;;
7929;SDS011;4010;42.698;23.124;2022-09-29T05:44:13;1.40;;;1.30;;
7929;SDS011;4010;42.698;23.124;2022-09-29T05:46:40;2.10;;;1.60;;
7929;SDS011;4010;42.698;23.124;2022-09-29T05:49:07;2.30;;;1.30;;
7929;SDS011;4010;42.698;23.124;2022-09-29T05:51:34;2.43;;;1.40;;
7929;SDS011;4010;42.698;23.124;2022-09-29T05:54:01;2.97;;;1.50;;
7929;SDS011;4010;42.698;23.124;2022-09-29T05:56:28;2.90;;;1.50;;
7929;SDS011;4010;42.698;23.124;2022-09-29T05:58:56;3.67;;;1.53;;
7929;SDS011;4010;42.698;23.124;2022-09-29T06:01:25;2.20;;;1.47;;
7929;SDS011;4010;42.698;23.124;2022-09-29T06:03:53;3.93;;;1.77;;
7929;SDS011;4010;42.698;23.124;2022-09-29T06:06:21;3.40;;;1.70;;
7929;SDS011;4010;42.698;23.124;2022-09-29T06:08:50;5.60;;;1.50;;
7929;SDS011;4010;42.698;23.124;2022-09-29T06:11:18;2.13;;;1.50;;
7929;SDS011;4010;42.698;23.124;2022-09-29T06:13:47;2.33;;;1.33;;
7929;SDS011;4010;42.698;23.124;2022-09-29T06:16:17;2.10;;;1.33;;
7929;SDS011;4010;42.698;23.124;2022-09-29T06:18:45;1.23;;;1.13;;
7929;SDS011;4010;42.698;23.124;2022-09-29T06:21:14;1.30;;;1.20;;
7929;SDS011;4010;42.698;23.124;2022-09-29T06:23:42;4.20;;;1.47;;
7929;SDS011;4010;42.698;23.124;2022-09-29T06:26:10;2.77;;;1.43;;
7929;SDS011;4010;42.698;23.124;2022-09-29T06:28:38;2.27;;;1.40;;
7929;SDS011;4010;42.698;23.124;2022-09-29T06:31:05;2.00;;;1.60;;
7929;SDS011;4010;42.698;23.124;2022-09-29T06:33:35;4.80;;;1.50;;
7929;SDS011;4010;42.698;23.124;2022-09-29T06:36:02;2.93;;;1.60;;
7929;SDS011;4010;42.698;23.124;2022-09-29T06:38:51;3.40;;;1.50;;
7929;SDS011;4010;42.698;23.124;2022-09-29T06:41:17;4.87;;;1.40;;
7929;SDS011;4010;42.698;23.124;2022-09-29T06:43:45;2.00;;;1.50;;
7929;SDS011;4010;42.698;23.124;2022-09-29T06:46:11;2.60;;;1.27;;
7929;SDS011;4010;42.698;23.124;2022-09-29T06:48:39;4.37;;;1.27;;
7929;SDS011;4010;42.698;23.124;2022-09-29T06:51:06;1.67;;;1.57;;
7929;SDS011;4010;42.698;23.124;2022-09-29T06:53:34;1.97;;;1.10;;
7929;SDS011;4010;42.698;23.124;2022-09-29T06:56:01;3.17;;;1.63;;
7929;SDS011;4010;42.698;23.124;2022-09-29T06:58:28;1.53;;;1.30;;
7929;SDS011;4010;42.698;23.124;2022-09-29T07:00:58;7.33;;;2.00;;
7929;SDS011;4010;42.698;23.124;2022-09-29T07:03:25;2.53;;;1.40;;
7929;SDS011;4010;42.698;23.124;2022-09-29T07:05:54;2.03;;;1.03;;
7929;SDS011;4010;42.698;23.124;2022-09-29T07:08:21;2.77;;;1.53;;
7929;SDS011;4010;42.698;23.124;2022-09-29T07:10:47;3.40;;;1.30;;
7929;SDS011;4010;42.698;23.124;2022-09-29T07:13:14;1.57;;;1.00;;
7929;SDS011;4010;42.698;23.124;2022-09-29T07:15:41;1.43;;;1.13;;
7929;SDS011;4010;42.698;23.124;2022-09-29T07:18:07;3.90;;;1.53;;
7929;SDS011;4010;42.698;23.124;2022-09-29T07:20:34;2.83;;;1.17;;
7929;SDS011;4010;42.698;23.124;2022-09-29T07:23:03;1.70;;;1.50;;
7929;SDS011;4010;42.698;23.124;2022-09-29T07:25:30;1.77;;;1.43;;
7929;SDS011;4010;42.698;23.124;2022-09-29T07:27:58;2.03;;;1.40;;
7929;SDS011;4010;42.698;23.124;2022-09-29T07:30:25;4.20;;;1.30;;
7929;SDS011;4010;42.698;23.124;2022-09-29T07:32:53;2.27;;;1.30;;
7929;SDS011;4010;42.698;23.124;2022-09-29T07:35:20;2.30;;;1.57;;
7929;SDS011;4010;42.698;23.124;2022-09-29T07:37:49;1.67;;;1.37;;
7929;SDS011;4010;42.698;23.124;2022-09-29T07:40:18;3.97;;;1.67;;
7929;SDS011;4010;42.698;23.124;2022-09-29T07:42:45;2.23;;;1.20;;
7929;SDS011;4010;42.698;23.124;2022-09-29T07:45:11;3.10;;;1.70;;
7929;SDS011;4010;42.698;23.124;2022-09-29T07:47:38;2.67;;;1.83;;
7929;SDS011;4010;42.698;23.124;2022-09-29T07:50:05;4.00;;;1.73;;
7929;SDS011;4010;42.698;23.124;2022-09-29T07:52:32;4.13;;;2.00;;
7929;SDS011;4010;42.698;23.124;2022-09-29T07:54:59;2.17;;;1.60;;
7929;SDS011;4010;42.698;23.124;2022-09-29T07:57:27;2.33;;;1.53;;
7929;SDS011;4010;42.698;23.124;2022-09-29T07:59:54;1.63;;;1.47;;
7929;SDS011;4010;42.698;23.124;2022-09-29T08:02:23;1.40;;;1.30;;
7929;SDS011;4010;42.698;23.124;2022-09-29T08:04:51;2.60;;;1.20;;
7929;SDS011;4010;42.698;23.124;2022-09-29T08:07:18;3.37;;;1.33;;
7929;SDS011;4010;42.698;23.124;2022-09-29T08:09:45;1.53;;;1.30;;
7929;SDS011;4010;42.698;23.124;2022-09-29T08:12:12;1.50;;;1.30;;
7929;SDS011;4010;42.698;23.124;2022-09-29T08:14:40;1.80;;;1.20;;
7929;SDS011;4010;42.698;23.124;2022-09-29T08:17:07;2.10;;;1.20;;
7929;SDS011;4010;42.698;23.124;2022-09-29T08:19:34;2.73;;;1.50;;
7929;SDS011;4010;42.698;23.124;2022-09-29T08:22:00;1.80;;;1.30;;
7929;SDS011;4010;42.698;23.124;2022-09-29T08:24:27;4.07;;;1.40;;
7929;SDS011;4010;42.698;23.124;2022-09-29T08:26:54;2.63;;;1.30;;
7929;SDS011;4010;42.698;23.124;2022-09-29T08:29:21;4.63;;;1.57;;
7929;SDS011;4010;42.698;23.124;2022-09-29T08:31:49;3.30;;;1.70;;
7929;SDS011;4010;42.698;23.124;2022-09-29T08:34:17;2.50;;;1.20;;
7929;SDS011;4010;42.698;23.124;2022-09-29T08:36:44;6.00;;;1.43;;
7929;SDS011;4010;42.698;23.124;2022-09-29T08:39:11;2.50;;;1.70;;
7929;SDS011;4010;42.698;23.124;2022-09-29T08:41:45;2.70;;;1.50;;
7929;SDS011;4010;42.698;23.124;2022-09-29T08:44:18;3.03;;;1.43;;
7929;SDS011;4010;42.698;23.124;2022-09-29T08:46:56;1.43;;;1.30;;
7929;SDS011;4010;42.698;23.124;2022-09-29T08:49:28;2.37;;;1.40;;
7929;SDS011;4010;42.698;23.124;2022-09-29T08:52:02;1.80;;;1.50;;
7929;SDS011;4010;42.698;23.124;2022-09-29T08:54:34;4.70;;;1.30;;
7929;SDS011;4010;42.698;23.124;2022-09-29T08:57:03;1.90;;;1.47;;
7929;SDS011;4010;42.698;23.124;2022-09-29T08:59:30;2.37;;;1.37;;
7929;SDS011;4010;42.698;23.124;2022-09-29T09:02:02;1.77;;;1.40;;
7929;SDS011;4010;42.698;23.124;2022-09-29T09:04:46;1.63;;;1.43;;
7929;SDS011;4010;42.698;23.124;2022-09-29T09:07:26;1.63;;;1.50;;
7929;SDS011;4010;42.698;23.124;2022-09-29T09:10:00;4.23;;;1.30;;
7929;SDS011;4010;42.698;23.124;2022-09-29T09:12:45;1.53;;;1.27;;
7929;SDS011;4010;42.698;23.124;2022-09-29T09:15:21;1.70;;;1.07;;
7929;SDS011;4010;42.698;23.124;2022-09-29T09:18:01;3.10;;;1.20;;
7929;SDS011;4010;42.698;23.124;2022-09-29T09:20:44;1.93;;;1.33;;
7929;SDS011;4010;42.698;23.124;2022-09-29T09:23:18;1.60;;;1.40;;
7929;SDS011;4010;42.698;23.124;2022-09-29T09:25:48;1.33;;;1.23;;
7929;SDS011;4010;42.698;23.124;2022-09-29T09:28:20;1.10;;;1.10;;
7929;SDS011;4010;42.698;23.124;2022-09-29T09:30:53;2.00;;;1.10;;
7929;SDS011;4010;42.698;23.124;2022-09-29T09:33:25;2.00;;;1.37;;
7929;SDS011;4010;42.698;23.124;2022-09-29T09:35:57;1.67;;;1.40;;
7929;SDS011;4010;42.698;23.124;2022-09-29T09:38:33;1.77;;;1.30;;
7929;SDS011;4010;42.698;23.124;2022-09-29T09:41:09;2.80;;;1.40;;
7929;SDS011;4010;42.698;23.124;2022-09-29T09:43:39;2.07;;;1.27;;
7929;SDS011;4010;42.698;23.124;2022-09-29T09:46:14;1.70;;;0.90;;
7929;SDS011;4010;42.698;23.124;2022-09-29T09:48:48;2.73;;;0.90;;
7929;SDS011;4010;42.698;23.124;2022-09-29T09:54:11;1.23;;;1.13;;
7929;SDS011;4010;42.698;23.124;2022-09-29T09:56:44;1.00;;;0.90;;
7929;SDS011;4010;42.698;23.124;2022-09-29T09:59:24;3.37;;;1.10;;
7929;SDS011;4010;42.698;23.124;2022-09-29T10:02:02;1.80;;;1.20;;
7929;SDS011;4010;42.698;23.124;2022-09-29T10:04:30;4.53;;;1.33;;
7929;SDS011;4010;42.698;23.124;2022-09-29T10:06:57;1.37;;;1.27;;
7929;SDS011;4010;42.698;23.124;2022-09-29T10:09:24;1.60;;;1.17;;
7929;SDS011;4010;42.698;23.124;2022-09-29T10:11:51;1.77;;;1.13;;
7929;SDS011;4010;42.698;23.124;2022-09-29T10:14:18;1.27;;;1.07;;
7929;SDS011;4010;42.698;23.124;2022-09-29T10:16:50;2.00;;;1.37;;
7929;SDS011;4010;42.698;23.124;2022-09-29T10:19:23;3.77;;;1.50;;
7929;SDS011;4010;42.698;23.124;2022-09-29T10:22:22;1.40;;;1.17;;
7929;SDS011;4010;42.698;23.124;2022-09-29T10:24:50;2.63;;;1.67;;
7929;SDS011;4010;42.698;23.124;2022-09-29T10:27:20;2.27;;;1.60;;
7929;SDS011;4010;42.698;23.124;2022-09-29T10:29:50;1.53;;;1.37;;
7929;SDS011;4010;42.698;23.124;2022-09-29T10:32:21;1.53;;;1.30;;
7929;SDS011;4010;42.698;23.124;2022-09-29T10:34:52;1.50;;;1.13;;
7929;SDS011;4010;42.698;23.124;2022-09-29T10:37:29;1.93;;;1.37;;
7929;SDS011;4010;42.698;23.124;2022-09-29T10:40:11;4.40;;;1.40;;
7929;SDS011;4010;42.698;23.124;2022-09-29T10:42:42;2.27;;;1.13;;
7929;SDS011;4010;42.698;23.124;2022-09-29T10:45:12;1.80;;;1.20;;
7929;SDS011;4010;42.698;23.124;2022-09-29T10:47:41;1.80;;;1.40;;
7929;SDS011;4010;42.698;23.124;2022-09-29T10:50:19;2.93;;;1.57;;
7929;SDS011;4010;42.698;23.124;2022-09-29T10:52:50;1.50;;;1.40;;
7929;SDS011;4010;42.698;23.124;2022-09-29T10:55:22;1.70;;;1.23;;
7929;SDS011;4010;42.698;23.124;2022-09-29T10:57:50;1.50;;;1.40;;
7929;SDS011;4010;42.698;23.124;2022-09-29T11:00:26;1.47;;;1.37;;
7929;SDS011;4010;42.698;23.124;2022-09-29T11:02:57;1.40;;;1.30;;
7929;SDS011;4010;42.698;23.124;2022-09-29T11:05:30;4.03;;;1.63;;
7929;SDS011;4010;42.698;23.124;2022-09-29T11:07:57;1.50;;;1.40;;
7929;SDS011;4010;42.698;23.124;2022-09-29T11:10:28;1.57;;;1.47;;
7929;SDS011;4010;42.698;23.124;2022-09-29T11:12:56;1.43;;;1.33;;
7929;SDS011;4010;42.698;23.124;2022-09-29T11:15:25;1.73;;;1.43;;
7929;SDS011;4010;42.698;23.124;2022-09-29T11:17:53;3.10;;;1.40;;
7929;SDS011;4010;42.698;23.124;2022-09-29T11:20:21;2.50;;;1.50;;
7929;SDS011;4010;42.698;23.124;2022-09-29T11:22:58;2.53;;;1.70;;
7929;SDS011;4010;42.698;23.124;2022-09-29T11:34:59;2.63;;;1.60;;
7929;SDS011;4010;42.698;23.124;2022-09-29T11:37:41;3.07;;;1.63;;
7929;SDS011;4010;42.698;23.124;2022-09-29T11:40:22;1.30;;;1.20;;
7929;SDS011;4010;42.698;23.124;2022-09-29T11:42:59;1.60;;;1.50;;
7929;SDS011;4010;42.698;23.124;2022-09-29T11:45:37;1.73;;;1.37;;
7929;SDS011;4010;42.698;23.124;2022-09-29T11:51:04;2.13;;;1.63;;
7929;SDS011;4010;42.698;23.124;2022-09-29T11:53:43;1.83;;;1.50;;
7929;SDS011;4010;42.698;23.124;2022-09-29T11:56:25;3.17;;;1.53;;
7929;SDS011;4010;42.698;23.124;2022-09-29T11:59:01;1.30;;;1.20;;
7929;SDS011;4010;42.698;23.124;2022-09-29T12:02:07;1.77;;;1.67;;
7929;SDS011;4010;42.698;23.124;2022-09-29T12:08:22;1.87;;;1.40;;
7929;SDS011;4010;42.698;23.124;2022-09-29T12:10:59;2.07;;;1.57;;
7929;SDS011;4010;42.698;23.124;2022-09-29T12:13:50;1.50;;;1.40;;
7929;SDS011;4010;42.698;23.124;2022-09-29T12:16:23;2.50;;;1.70;;
7929;SDS011;4010;42.698;23.124;2022-09-29T12:18:56;1.77;;;1.50;;
7929;SDS011;4010;42.698;23.124;2022-09-29T12:21:35;2.70;;;1.50;;
7929;SDS011;4010;42.698;23.124;2022-09-29T12:24:06;1.47;;;1.30;;
7929;SDS011;4010;42.698;23.124;2022-09-29T12:26:40;1.90;;;1.40;;
7929;SDS011;4010;42.698;23.124;2022-09-29T12:29:15;1.47;;;1.30;;
7929;SDS011;4010;42.698;23.124;2022-09-29T12:31:47;2.00;;;1.47;;
7929;SDS011;4010;42.698;23.124;2022-09-29T12:34:18;1.83;;;1.40;;
7929;SDS011;4010;42.698;23.124;2022-09-29T12:36:52;1.93;;;1.70;;
7929;SDS011;4010;42.698;23.124;2022-09-29T12:39:36;3.03;;;1.60;;
7929;SDS011;4010;42.698;23.124;2022-09-29T12:42:16;2.83;;;1.30;;
7929;SDS011;4010;42.698;23.124;2022-09-29T12:44:57;2.23;;;1.60;;
7929;SDS011;4010;42.698;23.124;2022-09-29T12:50:38;1.40;;;1.30;;
7929;SDS011;4010;42.698;23.124;2022-09-29T12:53:09;2.37;;;1.60;;
7929;SDS011;4010;42.698;23.124;2022-09-29T12:55:42;1.50;;;1.40;;
7929;SDS011;4010;42.698;23.124;2022-09-29T12:58:18;2.67;;;1.40;;
7929;SDS011;4010;42.698;23.124;2022-09-29T13:00:53;1.87;;;1.50;;
7929;SDS011;4010;42.698;23.124;2022-09-29T13:06:39;2.40;;;1.80;;
7929;SDS011;4010;42.698;23.124;2022-09-29T13:12:15;1.95;;;1.85;;
7929;SDS011;4010;42.698;23.124;2022-09-29T13:20:47;2.50;;;1.63;;
7929;SDS011;4010;42.698;23.124;2022-09-29T13:29:27;2.60;;;1.50;;
7929;SDS011;4010;42.698;23.124;2022-09-29T13:31:56;3.00;;;1.70;;
7929;SDS011;4010;42.698;23.124;2022-09-29T13:34:29;1.50;;;1.40;;
7929;SDS011;4010;42.698;23.124;2022-09-29T13:37:03;1.97;;;1.70;;
7929;SDS011;4010;42.698;23.124;2022-09-29T13:39:32;2.77;;;1.70;;
7929;SDS011;4010;42.698;23.124;2022-09-29T13:45:12;2.80;;;1.60;;
7929;SDS011;4010;42.698;23.124;2022-09-29T13:48:00;1.60;;;1.50;;
7929;SDS011;4010;42.698;23.124;2022-09-29T13:50:49;1.30;;;1.20;;
7929;SDS011;4010;42.698;23.124;2022-09-29T13:53:26;1.47;;;1.17;;
7929;SDS011;4010;42.698;23.124;2022-09-29T13:56:08;1.70;;;1.53;;
7929;SDS011;4010;42.698;23.124;2022-09-29T14:01:28;2.07;;;1.40;;
7929;SDS011;4010;42.698;23.124;2022-09-29T14:03:57;1.60;;;1.50;;
7929;SDS011;4010;42.698;23.124;2022-09-29T14:06:25;1.87;;;1.67;;
7929;SDS011;4010;42.698;23.124;2022-09-29T14:08:58;1.40;;;1.30;;
7929;SDS011;4010;42.698;23.124;2022-09-29T14:11:28;3.07;;;1.47;;
7929;SDS011;4010;42.698;23.124;2022-09-29T14:14:00;2.63;;;1.53;;
7929;SDS011;4010;42.698;23.124;2022-09-29T14:19:54;1.67;;;1.47;;
7929;SDS011;4010;42.698;23.124;2022-09-29T14:25:28;3.40;;;1.90;;
7929;SDS011;4010;42.698;23.124;2022-09-29T14:28:13;1.30;;;1.20;;
7929;SDS011;4010;42.698;23.124;2022-09-29T14:33:45;2.13;;;1.80;;
7929;SDS011;4010;42.698;23.124;2022-09-29T14:36:15;2.57;;;1.57;;
7929;SDS011;4010;42.698;23.124;2022-09-29T14:38:48;1.93;;;1.73;;
7929;SDS011;4010;42.698;23.124;2022-09-29T14:41:23;2.73;;;1.70;;
7929;SDS011;4010;42.698;23.124;2022-09-29T14:43:56;2.97;;;1.80;;
7929;SDS011;4010;42.698;23.124;2022-09-29T14:46:30;1.70;;;1.60;;
7929;SDS011;4010;42.698;23.124;2022-09-29T14:49:36;1.70;;;1.60;;
7929;SDS011;4010;42.698;23.124;2022-09-29T14:52:33;2.17;;;1.67;;
7929;SDS011;4010;42.698;23.124;2022-09-29T14:55:18;6.53;;;1.53;;
7929;SDS011;4010;42.698;23.124;2022-09-29T14:58:07;2.07;;;1.70;;
7929;SDS011;4010;42.698;23.124;2022-09-29T15:00:53;1.70;;;1.60;;
7929;SDS011;4010;42.698;23.124;2022-09-29T15:06:10;1.63;;;1.53;;
7929;SDS011;4010;42.698;23.124;2022-09-29T15:08:53;2.30;;;1.50;;
7929;SDS011;4010;42.698;23.124;2022-09-29T15:11:27;1.87;;;1.67;;
7929;SDS011;4010;42.698;23.124;2022-09-29T15:13:57;2.47;;;1.37;;
7929;SDS011;4010;42.698;23.124;2022-09-29T15:19:02;4.23;;;1.97;;
7929;SDS011;4010;42.698;23.124;2022-09-29T15:21:52;2.60;;;1.73;;
7929;SDS011;4010;42.698;23.124;2022-09-29T15:24:41;2.80;;;1.77;;
7929;SDS011;4010;42.698;23.124;2022-09-29T15:27:22;1.90;;;1.70;;
7929;SDS011;4010;42.698;23.124;2022-09-29T15:29:52;2.40;;;1.90;;
7929;SDS011;4010;42.698;23.124;2022-09-29T15:32:23;2.80;;;1.80;;
7929;SDS011;4010;42.698;23.124;2022-09-29T15:34:53;3.33;;;1.60;;
7929;SDS011;4010;42.698;23.124;2022-09-29T15:37:28;3.23;;;1.73;;
7929;SDS011;4010;42.698;23.124;2022-09-29T15:40:20;4.57;;;2.03;;
7929;SDS011;4010;42.698;23.124;2022-09-29T15:42:50;2.40;;;1.67;;
7929;SDS011;4010;42.698;23.124;2022-09-29T15:45:20;2.33;;;1.70;;
7929;SDS011;4010;42.698;23.124;2022-09-29T15:47:57;5.20;;;1.70;;
7929;SDS011;4010;42.698;23.124;2022-09-29T15:50:26;2.97;;;1.90;;
7929;SDS011;4010;42.698;23.124;2022-09-29T15:52:56;1.90;;;1.80;;
7929;SDS011;4010;42.698;23.124;2022-09-29T15:55:27;1.77;;;1.67;;
7929;SDS011;4010;42.698;23.124;2022-09-29T15:57:56;2.77;;;1.80;;
7929;SDS011;4010;42.698;23.124;2022-09-29T16:03:24;4.87;;;1.90;;
7929;SDS011;4010;42.698;23.124;2022-09-29T16:08:44;2.27;;;2.03;;
7929;SDS011;4010;42.698;23.124;2022-09-29T16:11:15;2.57;;;1.87;;
7929;SDS011;4010;42.698;23.124;2022-09-29T16:13:52;4.80;;;2.37;;
7929;SDS011;4010;42.698;23.124;2022-09-29T16:16:29;2.57;;;2.17;;
7929;SDS011;4010;42.698;23.124;2022-09-29T16:19:01;3.83;;;2.93;;
7929;SDS011;4010;42.698;23.124;2022-09-29T16:21:33;4.07;;;2.30;;
7929;SDS011;4010;42.698;23.124;2022-09-29T16:26:44;5.47;;;3.40;;
7929;SDS011;4010;42.698;23.124;2022-09-29T16:38:07;2.60;;;1.77;;
7929;SDS011;4010;42.698;23.124;2022-09-29T16:40:37;5.00;;;2.30;;
7929;SDS011;4010;42.698;23.124;2022-09-29T16:43:04;2.27;;;2.07;;
7929;SDS011;4010;42.698;23.124;2022-09-29T16:45:32;4.97;;;3.33;;
7929;SDS011;4010;42.698;23.124;2022-09-29T16:47:59;3.97;;;3.57;;